Rome/Ciampino Airport

Airport
ICAO code: 
LIRA
IATA Code: 
CIA
Summary
ICAO Region: 
EUR
Territory: 
Location: 
Ciampino, Lazio
Serving: 
Rome
Elevation: 
427 ft
Coordinates: 
Aerial View: 
41° 47' 54" N, 12° 35' 48" E
Metar
Observation
LIRA 081020Z 17018G29KT 9999 FEW030 BKN050 13/06 Q1007
Station
Roma / Ciampino
Date/Time
2021-12-08 10:20:00
Wind direction
170°
Wind speed
18 kts
Lowest cloud amount
few clouds
Temperature
13°C
Dew point
6°C
Humidity
62%
QNH
1007 hPa
Weather condition
n/a

Secondary international airport serving Rome.

Climatology

Dry-summer subtropical ”Mediterranean" climate (Köppen climate classification Csa) - characterized by hot, dry summers and mild winters. During the summer, subtropical high pressure cells dominate, making rainfall unlikely except for the occasional thunderstorm. In the winter, periodic storms bring rain (snow at higher elevations).

Runways

Designator Length Width Surface Rops
15/33 2207 47 ASP Yes/Yes
Airport map: 
Aerial View: 

Accidents and Serious Incidents at or in the vicinity of LIRA

SKYbrary Partners:

Safety knowledge contributed by: